sensor_id;sensor_type;location;lat;lon;timestamp;pressure;altitude;pressure_sealevel;temperature;humidity
72285;BME280;60220;53.552;10.092;2023-03-04T00:01:45;101818.25;;;6.57;74.30
72285;BME280;60220;53.552;10.092;2023-03-04T00:04:15;101814.56;;;6.47;74.24
72285;BME280;60220;53.552;10.092;2023-03-04T00:06:41;101812.19;;;6.60;73.49
72285;BME280;60220;53.552;10.092;2023-03-04T00:09:08;101808.75;;;6.61;73.84
72285;BME280;60220;53.552;10.092;2023-03-04T00:11:37;101810.19;;;6.46;74.23
72285;BME280;60220;53.552;10.092;2023-03-04T00:14:03;101815.50;;;6.53;74.01
72285;BME280;60220;53.552;10.092;2023-03-04T00:16:31;101807.09;;;6.66;73.03
72285;BME280;60220;53.552;10.092;2023-03-04T00:18:58;101802.56;;;7.01;73.23
72285;BME280;60220;53.552;10.092;2023-03-04T00:21:25;101796.69;;;7.12;71.99
72285;BME280;60220;53.552;10.092;2023-03-04T00:23:51;101812.91;;;6.96;71.56
72285;BME280;60220;53.552;10.092;2023-03-04T00:26:18;101815.88;;;6.69;72.13
72285;BME280;60220;53.552;10.092;2023-03-04T00:28:44;101804.25;;;6.97;71.95
72285;BME280;60220;53.552;10.092;2023-03-04T00:31:11;101803.34;;;6.52;71.81
72285;BME280;60220;53.552;10.092;2023-03-04T00:33:39;101800.06;;;6.62;72.69
72285;BME280;60220;53.552;10.092;2023-03-04T00:36:07;101803.56;;;6.64;72.39
72285;BME280;60220;53.552;10.092;2023-03-04T00:38:37;101806.31;;;6.70;72.61
72285;BME280;60220;53.552;10.092;2023-03-04T00:41:04;101796.03;;;6.77;72.02
72285;BME280;60220;53.552;10.092;2023-03-04T00:43:30;101784.59;;;6.71;71.51
72285;BME280;60220;53.552;10.092;2023-03-04T00:45:57;101783.66;;;6.69;71.88
72285;BME280;60220;53.552;10.092;2023-03-04T00:48:24;101785.47;;;6.29;72.81
72285;BME280;60220;53.552;10.092;2023-03-04T00:50:52;101784.72;;;6.35;72.45
72285;BME280;60220;53.552;10.092;2023-03-04T00:53:18;101777.06;;;6.87;71.75
72285;BME280;60220;53.552;10.092;2023-03-04T00:55:45;101778.75;;;6.84;71.52
72285;BME280;60220;53.552;10.092;2023-03-04T00:58:12;101769.94;;;6.79;71.15
72285;BME280;60220;53.552;10.092;2023-03-04T01:00:38;101775.13;;;6.32;72.44
72285;BME280;60220;53.552;10.092;2023-03-04T01:03:05;101770.03;;;6.83;71.77
72285;BME280;60220;53.552;10.092;2023-03-04T01:05:31;101761.22;;;6.33;72.29
72285;BME280;60220;53.552;10.092;2023-03-04T01:08:01;101765.19;;;6.57;73.20
72285;BME280;60220;53.552;10.092;2023-03-04T01:10:28;101761.41;;;6.86;72.03
72285;BME280;60220;53.552;10.092;2023-03-04T01:12:55;101770.03;;;6.82;72.01
72285;BME280;60220;53.552;10.092;2023-03-04T01:15:22;101760.47;;;6.37;72.11
72285;BME280;60220;53.552;10.092;2023-03-04T01:17:49;101761.34;;;6.84;71.83
72285;BME280;60220;53.552;10.092;2023-03-04T01:20:16;101756.63;;;6.64;71.68
72285;BME280;60220;53.552;10.092;2023-03-04T01:22:42;101750.50;;;6.62;71.94
72285;BME280;60220;53.552;10.092;2023-03-04T01:25:10;101747.09;;;7.12;71.34
72285;BME280;60220;53.552;10.092;2023-03-04T01:27:37;101734.78;;;6.59;72.20
72285;BME280;60220;53.552;10.092;2023-03-04T01:30:07;101741.03;;;6.67;71.85
72285;BME280;60220;53.552;10.092;2023-03-04T01:32:34;101734.94;;;6.23;72.57
72285;BME280;60220;53.552;10.092;2023-03-04T01:35:01;101726.91;;;6.56;72.86
72285;BME280;60220;53.552;10.092;2023-03-04T01:37:27;101717.81;;;6.80;72.63
72285;BME280;60220;53.552;10.092;2023-03-04T01:39:54;101728.69;;;6.58;71.80
72285;BME280;60220;53.552;10.092;2023-03-04T01:42:26;101718.00;;;6.91;71.72
72285;BME280;60220;53.552;10.092;2023-03-04T01:44:55;101715.03;;;6.73;71.66
72285;BME280;60220;53.552;10.092;2023-03-04T01:47:27;101710.97;;;6.40;73.18
72285;BME280;60220;53.552;10.092;2023-03-04T01:49:55;101709.94;;;6.77;71.98
72285;BME280;60220;53.552;10.092;2023-03-04T01:52:22;101709.38;;;7.51;70.63
72285;BME280;60220;53.552;10.092;2023-03-04T01:54:50;101709.56;;;7.07;71.00
72285;BME280;60220;53.552;10.092;2023-03-04T01:57:18;101706.19;;;6.65;72.26
72285;BME280;60220;53.552;10.092;2023-03-04T02:00:13;101709.00;;;6.75;71.84
72285;BME280;60220;53.552;10.092;2023-03-04T02:02:40;101696.56;;;6.61;71.81
72285;BME280;60220;53.552;10.092;2023-03-04T02:05:09;101694.13;;;6.70;72.71
72285;BME280;60220;53.552;10.092;2023-03-04T02:07:36;101682.66;;;6.60;72.42
72285;BME280;60220;53.552;10.092;2023-03-04T02:10:06;101698.19;;;7.02;72.05
72285;BME280;60220;53.552;10.092;2023-03-04T02:12:33;101697.97;;;6.90;71.48
72285;BME280;60220;53.552;10.092;2023-03-04T02:15:02;101695.00;;;7.21;71.32
72285;BME280;60220;53.552;10.092;2023-03-04T02:17:30;101688.56;;;7.00;70.67
72285;BME280;60220;53.552;10.092;2023-03-04T02:20:02;101686.94;;;6.57;72.85
72285;BME280;60220;53.552;10.092;2023-03-04T02:22:36;101672.00;;;6.49;72.81
72285;BME280;60220;53.552;10.092;2023-03-04T02:25:06;101677.22;;;6.99;72.35
72285;BME280;60220;53.552;10.092;2023-03-04T02:27:37;101681.31;;;6.82;72.59
72285;BME280;60220;53.552;10.092;2023-03-04T02:30:05;101671.50;;;6.69;73.08
72285;BME280;60220;53.552;10.092;2023-03-04T02:32:32;101667.91;;;6.64;72.52
72285;BME280;60220;53.552;10.092;2023-03-04T02:34:59;101659.63;;;6.86;72.83
72285;BME280;60220;53.552;10.092;2023-03-04T02:37:26;101657.47;;;6.64;73.13
72285;BME280;60220;53.552;10.092;2023-03-04T02:39:53;101658.78;;;6.88;72.79
72285;BME280;60220;53.552;10.092;2023-03-04T02:42:19;101660.03;;;7.13;71.79
72285;BME280;60220;53.552;10.092;2023-03-04T02:44:47;101661.16;;;6.75;72.54
72285;BME280;60220;53.552;10.092;2023-03-04T02:47:17;101654.94;;;6.67;73.82
72285;BME280;60220;53.552;10.092;2023-03-04T02:49:44;101647.75;;;6.54;74.06
72285;BME280;60220;53.552;10.092;2023-03-04T02:52:13;101648.97;;;6.74;73.96
72285;BME280;60220;53.552;10.092;2023-03-04T02:54:40;101650.56;;;6.66;74.53
72285;BME280;60220;53.552;10.092;2023-03-04T02:57:09;101644.31;;;6.58;74.82
72285;BME280;60220;53.552;10.092;2023-03-04T02:59:36;101640.44;;;6.34;75.47
72285;BME280;60220;53.552;10.092;2023-03-04T03:02:05;101632.44;;;6.25;75.49
72285;BME280;60220;53.552;10.092;2023-03-04T03:04:32;101634.50;;;6.41;75.88
72285;BME280;60220;53.552;10.092;2023-03-04T03:07:00;101631.50;;;6.70;75.68
72285;BME280;60220;53.552;10.092;2023-03-04T03:09:26;101636.88;;;6.79;75.25
72285;BME280;60220;53.552;10.092;2023-03-04T03:11:53;101635.66;;;7.11;74.17
72285;BME280;60220;53.552;10.092;2023-03-04T03:14:22;101637.59;;;6.70;74.80
72285;BME280;60220;53.552;10.092;2023-03-04T03:16:48;101640.56;;;6.93;74.20
72285;BME280;60220;53.552;10.092;2023-03-04T03:19:18;101632.34;;;6.69;75.69
72285;BME280;60220;53.552;10.092;2023-03-04T03:21:47;101638.13;;;7.02;75.57
72285;BME280;60220;53.552;10.092;2023-03-04T03:24:14;101632.16;;;7.09;74.98
72285;BME280;60220;53.552;10.092;2023-03-04T03:26:43;101615.19;;;6.33;75.06
72285;BME280;60220;53.552;10.092;2023-03-04T03:29:12;101622.31;;;6.40;75.59
72285;BME280;60220;53.552;10.092;2023-03-04T03:31:39;101614.84;;;6.62;74.75
72285;BME280;60220;53.552;10.092;2023-03-04T03:34:05;101623.09;;;6.87;73.26
72285;BME280;60220;53.552;10.092;2023-03-04T03:36:37;101625.69;;;6.86;73.95
72285;BME280;60220;53.552;10.092;2023-03-04T03:39:04;101612.31;;;6.68;74.51
72285;BME280;60220;53.552;10.092;2023-03-04T03:41:30;101624.81;;;6.85;73.97
72285;BME280;60220;53.552;10.092;2023-03-04T03:44:03;101627.50;;;6.90;74.00
72285;BME280;60220;53.552;10.092;2023-03-04T03:46:36;101613.75;;;6.47;74.71
72285;BME280;60220;53.552;10.092;2023-03-04T03:49:02;101614.66;;;7.02;73.17
72285;BME280;60220;53.552;10.092;2023-03-04T03:51:34;101618.84;;;6.94;73.70
72285;BME280;60220;53.552;10.092;2023-03-04T03:54:08;101616.63;;;6.64;75.23
72285;BME280;60220;53.552;10.092;2023-03-04T03:56:34;101612.31;;;6.68;76.72
72285;BME280;60220;53.552;10.092;2023-03-04T03:59:04;101617.34;;;6.56;77.29
72285;BME280;60220;53.552;10.092;2023-03-04T04:01:33;101607.09;;;6.68;76.90
72285;BME280;60220;53.552;10.092;2023-03-04T04:04:00;101600.41;;;6.31;77.87
72285;BME280;60220;53.552;10.092;2023-03-04T04:06:27;101603.31;;;6.01;78.37
72285;BME280;60220;53.552;10.092;2023-03-04T04:08:53;101606.53;;;6.34;78.56
72285;BME280;60220;53.552;10.092;2023-03-04T04:11:24;101606.97;;;6.59;77.78
72285;BME280;60220;53.552;10.092;2023-03-04T04:13:52;101604.56;;;6.71;77.63
72285;BME280;60220;53.552;10.092;2023-03-04T04:16:19;101598.31;;;6.63;77.04
72285;BME280;60220;53.552;10.092;2023-03-04T04:18:46;101606.13;;;6.60;76.75
72285;BME280;60220;53.552;10.092;2023-03-04T04:21:15;101603.97;;;6.87;75.91
72285;BME280;60220;53.552;10.092;2023-03-04T04:23:44;101599.78;;;6.97;75.30
72285;BME280;60220;53.552;10.092;2023-03-04T04:26:13;101595.00;;;6.73;76.30
72285;BME280;60220;53.552;10.092;2023-03-04T04:28:43;101608.53;;;7.03;75.34
72285;BME280;60220;53.552;10.092;2023-03-04T04:31:12;101596.25;;;6.42;75.86
72285;BME280;60220;53.552;10.092;2023-03-04T04:33:39;101578.09;;;6.46;74.78
72285;BME280;60220;53.552;10.092;2023-03-04T04:36:07;101591.31;;;6.59;74.69
72285;BME280;60220;53.552;10.092;2023-03-04T04:38:35;101588.69;;;6.59;73.38
72285;BME280;60220;53.552;10.092;2023-03-04T04:41:04;101598.78;;;6.37;72.43
72285;BME280;60220;53.552;10.092;2023-03-04T04:43:31;101593.31;;;6.75;71.02
72285;BME280;60220;53.552;10.092;2023-03-04T04:46:01;101588.56;;;6.49;71.13
72285;BME280;60220;53.552;10.092;2023-03-04T04:48:29;101594.63;;;7.01;70.08
72285;BME280;60220;53.552;10.092;2023-03-04T04:50:55;101583.63;;;6.66;69.13
72285;BME280;60220;53.552;10.092;2023-03-04T04:53:22;101586.25;;;6.68;69.53
72285;BME280;60220;53.552;10.092;2023-03-04T04:55:49;101578.88;;;6.98;68.66
72285;BME280;60220;53.552;10.092;2023-03-04T04:58:18;101572.31;;;6.66;69.15
72285;BME280;60220;53.552;10.092;2023-03-04T05:00:44;101577.81;;;6.33;69.80
72285;BME280;60220;53.552;10.092;2023-03-04T05:03:13;101570.75;;;6.78;68.44
72285;BME280;60220;53.552;10.092;2023-03-04T05:05:41;101573.09;;;6.60;68.78
72285;BME280;60220;53.552;10.092;2023-03-04T05:08:08;101577.56;;;7.26;67.05
72285;BME280;60220;53.552;10.092;2023-03-04T05:10:35;101565.47;;;6.74;67.77
72285;BME280;60220;53.552;10.092;2023-03-04T05:13:05;101575.16;;;6.81;67.73
72285;BME280;60220;53.552;10.092;2023-03-04T05:15:32;101574.31;;;6.83;67.47
72285;BME280;60220;53.552;10.092;2023-03-04T05:17:59;101576.72;;;7.28;66.10
72285;BME280;60220;53.552;10.092;2023-03-04T05:20:29;101577.66;;;7.33;65.89
72285;BME280;60220;53.552;10.092;2023-03-04T05:22:59;101581.63;;;7.70;64.72
72285;BME280;60220;53.552;10.092;2023-03-04T05:25:25;101579.16;;;7.15;66.72
72285;BME280;60220;53.552;10.092;2023-03-04T05:27:54;101576.81;;;7.34;67.36
72285;BME280;60220;53.552;10.092;2023-03-04T05:30:23;101580.06;;;7.86;66.95
72285;BME280;60220;53.552;10.092;2023-03-04T05:32:51;101582.19;;;6.85;70.05
72285;BME280;60220;53.552;10.092;2023-03-04T05:35:20;101575.09;;;6.78;71.90
72285;BME280;60220;53.552;10.092;2023-03-04T05:37:48;101585.59;;;7.43;71.02
72285;BME280;60220;53.552;10.092;2023-03-04T05:40:15;101580.72;;;7.02;73.32
72285;BME280;60220;53.552;10.092;2023-03-04T05:42:42;101577.81;;;6.84;74.43
72285;BME280;60220;53.552;10.092;2023-03-04T05:45:10;101578.31;;;6.60;76.07
72285;BME280;60220;53.552;10.092;2023-03-04T05:47:37;101580.03;;;6.60;76.43
72285;BME280;60220;53.552;10.092;2023-03-04T05:50:04;101583.56;;;6.62;76.34
72285;BME280;60220;53.552;10.092;2023-03-04T05:52:31;101587.47;;;6.89;75.55
72285;BME280;60220;53.552;10.092;2023-03-04T05:54:59;101595.50;;;6.47;75.83
72285;BME280;60220;53.552;10.092;2023-03-04T05:57:25;101589.25;;;6.39;75.71
72285;BME280;60220;53.552;10.092;2023-03-04T05:59:52;101597.75;;;6.29;75.23
72285;BME280;60220;53.552;10.092;2023-03-04T06:02:18;101597.44;;;6.61;73.25
72285;BME280;60220;53.552;10.092;2023-03-04T06:04:47;101593.19;;;6.66;71.68
72285;BME280;60220;53.552;10.092;2023-03-04T06:07:16;101590.06;;;6.35;71.16
72285;BME280;60220;53.552;10.092;2023-03-04T06:09:43;101593.72;;;6.46;69.51
72285;BME280;60220;53.552;10.092;2023-03-04T06:12:11;101597.88;;;6.35;68.53
72285;BME280;60220;53.552;10.092;2023-03-04T06:14:40;101589.19;;;6.36;67.85
72285;BME280;60220;53.552;10.092;2023-03-04T06:17:07;101598.41;;;6.66;66.15
72285;BME280;60220;53.552;10.092;2023-03-04T06:19:34;101590.97;;;6.37;66.06
72285;BME280;60220;53.552;10.092;2023-03-04T06:22:02;101585.84;;;6.43;65.18
72285;BME280;60220;53.552;10.092;2023-03-04T06:24:29;101590.09;;;6.38;64.12
72285;BME280;60220;53.552;10.092;2023-03-04T06:26:55;101596.50;;;6.09;64.48
72285;BME280;60220;53.552;10.092;2023-03-04T06:29:23;101600.00;;;6.10;63.95
72285;BME280;60220;53.552;10.092;2023-03-04T06:31:50;101616.19;;;6.40;63.68
72285;BME280;60220;53.552;10.092;2023-03-04T06:34:17;101613.78;;;6.04;63.29
72285;BME280;60220;53.552;10.092;2023-03-04T06:36:43;101610.50;;;6.13;63.11
72285;BME280;60220;53.552;10.092;2023-03-04T06:39:10;101620.72;;;6.02;62.81
72285;BME280;60220;53.552;10.092;2023-03-04T06:41:37;101620.28;;;5.82;62.89
72285;BME280;60220;53.552;10.092;2023-03-04T06:44:04;101610.38;;;6.07;62.58
72285;BME280;60220;53.552;10.092;2023-03-04T06:46:33;101601.75;;;6.11;62.87
72285;BME280;60220;53.552;10.092;2023-03-04T06:49:00;101610.81;;;5.86;63.22
72285;BME280;60220;53.552;10.092;2023-03-04T06:51:27;101610.97;;;5.93;63.05
72285;BME280;60220;53.552;10.092;2023-03-04T06:53:54;101606.88;;;6.06;62.69
72285;BME280;60220;53.552;10.092;2023-03-04T06:56:21;101613.19;;;5.75;64.33
72285;BME280;60220;53.552;10.092;2023-03-04T06:58:48;101617.91;;;5.93;64.15
72285;BME280;60220;53.552;10.092;2023-03-04T07:01:16;101621.38;;;5.92;64.95
72285;BME280;60220;53.552;10.092;2023-03-04T07:03:48;101621.25;;;6.31;63.91
72285;BME280;60220;53.552;10.092;2023-03-04T07:06:18;101627.34;;;6.31;63.81
72285;BME280;60220;53.552;10.092;2023-03-04T07:08:45;101626.50;;;5.89;65.03
72285;BME280;60220;53.552;10.092;2023-03-04T07:11:15;101625.88;;;6.00;65.88
72285;BME280;60220;53.552;10.092;2023-03-04T07:13:42;101626.94;;;6.10;65.26
72285;BME280;60220;53.552;10.092;2023-03-04T07:16:11;101620.25;;;6.24;64.47
72285;BME280;60220;53.552;10.092;2023-03-04T07:18:38;101627.66;;;6.01;65.37
72285;BME280;60220;53.552;10.092;2023-03-04T07:21:07;101628.28;;;5.90;66.18
72285;BME280;60220;53.552;10.092;2023-03-04T07:23:34;101623.94;;;5.90;65.73
72285;BME280;60220;53.552;10.092;2023-03-04T07:26:01;101620.13;;;5.75;65.81
72285;BME280;60220;53.552;10.092;2023-03-04T07:28:27;101628.63;;;6.07;65.80
72285;BME280;60220;53.552;10.092;2023-03-04T07:30:54;101629.44;;;6.04;65.57
72285;BME280;60220;53.552;10.092;2023-03-04T07:33:23;101630.63;;;6.21;64.77
72285;BME280;60220;53.552;10.092;2023-03-04T07:35:57;101633.00;;;6.56;64.18
72285;BME280;60220;53.552;10.092;2023-03-04T07:38:25;101626.19;;;6.16;64.58
72285;BME280;60220;53.552;10.092;2023-03-04T07:40:54;101626.38;;;5.83;65.72
72285;BME280;60220;53.552;10.092;2023-03-04T07:43:23;101625.81;;;6.42;64.24
72285;BME280;60220;53.552;10.092;2023-03-04T07:45:50;101634.22;;;6.26;64.15
72285;BME280;60220;53.552;10.092;2023-03-04T07:48:19;101632.69;;;6.39;63.27
72285;BME280;60220;53.552;10.092;2023-03-04T07:50:49;101644.94;;;6.43;64.07
72285;BME280;60220;53.552;10.092;2023-03-04T07:53:16;101641.06;;;6.69;62.71
72285;BME280;60220;53.552;10.092;2023-03-04T07:55:46;101643.09;;;6.36;63.57
72285;BME280;60220;53.552;10.092;2023-03-04T07:58:13;101637.03;;;5.92;63.70
72285;BME280;60220;53.552;10.092;2023-03-04T08:00:44;101643.28;;;6.46;63.57
72285;BME280;60220;53.552;10.092;2023-03-04T08:03:10;101638.75;;;5.93;63.75
72285;BME280;60220;53.552;10.092;2023-03-04T08:05:38;101642.19;;;5.90;63.93
72285;BME280;60220;53.552;10.092;2023-03-04T08:08:07;101648.50;;;6.46;62.58
72285;BME280;60220;53.552;10.092;2023-03-04T08:10:33;101652.22;;;6.61;62.03
72285;BME280;60220;53.552;10.092;2023-03-04T08:13:05;101652.59;;;6.82;61.68
72285;BME280;60220;53.552;10.092;2023-03-04T08:15:32;101658.16;;;7.03;61.35
72285;BME280;60220;53.552;10.092;2023-03-04T08:18:07;101650.75;;;6.28;63.99
72285;BME280;60220;53.552;10.092;2023-03-04T08:20:36;101658.63;;;6.31;64.42
72285;BME280;60220;53.552;10.092;2023-03-04T08:23:05;101667.72;;;6.08;64.47
72285;BME280;60220;53.552;10.092;2023-03-04T08:25:37;101653.69;;;6.00;65.34
72285;BME280;60220;53.552;10.092;2023-03-04T08:28:05;101665.63;;;5.90;65.24
72285;BME280;60220;53.552;10.092;2023-03-04T08:30:35;101668.63;;;6.55;64.12
72285;BME280;60220;53.552;10.092;2023-03-04T08:33:04;101664.94;;;6.42;63.74
72285;BME280;60220;53.552;10.092;2023-03-04T08:35:31;101665.63;;;6.34;64.22
72285;BME280;60220;53.552;10.092;2023-03-04T08:37:57;101662.41;;;6.48;63.55
72285;BME280;60220;53.552;10.092;2023-03-04T08:40:26;101667.00;;;6.15;64.92
72285;BME280;60220;53.552;10.092;2023-03-04T08:42:53;101663.97;;;6.37;63.77
72285;BME280;60220;53.552;10.092;2023-03-04T08:45:21;101662.41;;;6.48;62.60
72285;BME280;60220;53.552;10.092;2023-03-04T08:47:48;101667.00;;;6.15;63.38
72285;BME280;60220;53.552;10.092;2023-03-04T08:50:16;101667.72;;;6.52;63.10
72285;BME280;60220;53.552;10.092;2023-03-04T08:52:45;101663.78;;;6.28;62.35
72285;BME280;60220;53.552;10.092;2023-03-04T08:55:11;101658.81;;;6.40;62.07
72285;BME280;60220;53.552;10.092;2023-03-04T08:57:38;101671.13;;;6.47;61.66
72285;BME280;60220;53.552;10.092;2023-03-04T09:00:06;101663.47;;;6.13;62.18
72285;BME280;60220;53.552;10.092;2023-03-04T09:02:34;101663.66;;;6.21;61.31
72285;BME280;60220;53.552;10.092;2023-03-04T09:05:01;101665.06;;;6.05;61.55
72285;BME280;60220;53.552;10.092;2023-03-04T09:07:27;101672.53;;;5.87;62.22
72285;BME280;60220;53.552;10.092;2023-03-04T09:09:54;101656.66;;;5.78;61.60
72285;BME280;60220;53.552;10.092;2023-03-04T09:12:21;101680.72;;;5.66;62.38
72285;BME280;60220;53.552;10.092;2023-03-04T09:14:47;101688.97;;;5.86;61.85
72285;BME280;60220;53.552;10.092;2023-03-04T09:17:14;101681.75;;;5.73;62.08
72285;BME280;60220;53.552;10.092;2023-03-04T09:19:44;101677.13;;;6.00;61.88
72285;BME280;60220;53.552;10.092;2023-03-04T09:22:11;101683.75;;;6.26;61.32
72285;BME280;60220;53.552;10.092;2023-03-04T09:24:37;101674.00;;;6.18;61.29
72285;BME280;60220;53.552;10.092;2023-03-04T09:27:07;101678.09;;;6.05;61.94
72285;BME280;60220;53.552;10.092;2023-03-04T09:29:34;101669.81;;;5.84;61.72
72285;BME280;60220;53.552;10.092;2023-03-04T09:32:01;101675.53;;;6.08;61.37
72285;BME280;60220;53.552;10.092;2023-03-04T09:34:27;101667.97;;;5.80;61.20
72285;BME280;60220;53.552;10.092;2023-03-04T09:36:56;101680.13;;;5.79;60.53
72285;BME280;60220;53.552;10.092;2023-03-04T09:39:25;101665.16;;;5.69;60.77
72285;BME280;60220;53.552;10.092;2023-03-04T09:41:57;101670.47;;;6.14;60.36
72285;BME280;60220;53.552;10.092;2023-03-04T09:44:27;101667.19;;;6.24;59.37
72285;BME280;60220;53.552;10.092;2023-03-04T09:46:59;101661.97;;;6.24;58.99
72285;BME280;60220;53.552;10.092;2023-03-04T09:49:27;101671.53;;;5.83;59.50
72285;BME280;60220;53.552;10.092;2023-03-04T09:52:01;101671.38;;;6.16;59.25
72285;BME280;60220;53.552;10.092;2023-03-04T09:54:45;101679.47;;;6.76;58.69
72285;BME280;60220;53.552;10.092;2023-03-04T09:57:22;101672.34;;;6.21;58.46
72285;BME280;60220;53.552;10.092;2023-03-04T09:59:59;101667.13;;;6.21;58.64
72285;BME280;60220;53.552;10.092;2023-03-04T10:02:38;101669.69;;;6.20;58.68
72285;BME280;60220;53.552;10.092;2023-03-04T10:05:12;101666.53;;;5.91;59.28
72285;BME280;60220;53.552;10.092;2023-03-04T10:07:45;101668.06;;;6.25;59.97
72285;BME280;60220;53.552;10.092;2023-03-04T10:10:18;101668.00;;;6.67;58.85
72285;BME280;60220;53.552;10.092;2023-03-04T10:12:48;101666.59;;;6.39;58.31
72285;BME280;60220;53.552;10.092;2023-03-04T10:15:22;101658.84;;;6.43;58.32
72285;BME280;60220;53.552;10.092;2023-03-04T10:17:52;101666.22;;;6.66;57.63
72285;BME280;60220;53.552;10.092;2023-03-04T10:20:24;101667.63;;;6.98;58.32
72285;BME280;60220;53.552;10.092;2023-03-04T10:22:57;101665.25;;;6.61;58.50
72285;BME280;60220;53.552;10.092;2023-03-04T10:25:26;101672.47;;;6.75;58.72
72285;BME280;60220;53.552;10.092;2023-03-04T10:27:58;101667.00;;;6.60;59.53
72285;BME280;60220;53.552;10.092;2023-03-04T10:30:35;101648.50;;;6.46;58.33
72285;BME280;60220;53.552;10.092;2023-03-04T10:33:12;101648.94;;;7.28;56.85
72285;BME280;60220;53.552;10.092;2023-03-04T10:35:43;101672.28;;;7.17;55.50
72285;BME280;60220;53.552;10.092;2023-03-04T10:38:12;101666.63;;;6.90;56.29
72285;BME280;60220;53.552;10.092;2023-03-04T10:40:40;101677.72;;;6.77;57.08
72285;BME280;60220;53.552;10.092;2023-03-04T10:43:13;101667.34;;;6.33;57.29
72285;BME280;60220;53.552;10.092;2023-03-04T10:45:40;101648.25;;;6.34;57.79
72285;BME280;60220;53.552;10.092;2023-03-04T10:48:17;101661.69;;;6.56;57.03
72285;BME280;60220;53.552;10.092;2023-03-04T10:50:44;101669.94;;;6.80;56.54
72285;BME280;60220;53.552;10.092;2023-03-04T10:53:28;101672.41;;;6.71;55.61
72285;BME280;60220;53.552;10.092;2023-03-04T10:55:57;101671.09;;;6.96;55.44
72285;BME280;60220;53.552;10.092;2023-03-04T10:58:24;101662.41;;;6.48;55.45
72285;BME280;60220;53.552;10.092;2023-03-04T11:01:00;101663.78;;;6.27;55.65
72285;BME280;60220;53.552;10.092;2023-03-04T11:03:32;101671.22;;;6.07;55.82
72285;BME280;60220;53.552;10.092;2023-03-04T11:06:10;101659.41;;;6.26;56.46
72285;BME280;60220;53.552;10.092;2023-03-04T11:08:40;101679.44;;;6.28;55.74
72285;BME280;60220;53.552;10.092;2023-03-04T11:11:21;101671.22;;;6.52;54.04
72285;BME280;60220;53.552;10.092;2023-03-04T11:13:52;101669.88;;;6.75;54.26
72285;BME280;60220;53.552;10.092;2023-03-04T11:19:15;101655.47;;;6.49;54.16
72285;BME280;60220;53.552;10.092;2023-03-04T11:21:43;101662.25;;;6.39;54.81
72285;BME280;60220;53.552;10.092;2023-03-04T11:24:18;101670.34;;;7.04;53.91
72285;BME280;60220;53.552;10.092;2023-03-04T11:26:52;101655.78;;;6.66;53.08
72285;BME280;60220;53.552;10.092;2023-03-04T11:29:24;101659.88;;;7.03;52.58
72285;BME280;60220;53.552;10.092;2023-03-04T11:31:57;101655.47;;;7.56;52.10
72285;BME280;60220;53.552;10.092;2023-03-04T11:34:29;101660.59;;;7.50;51.28
72285;BME280;60220;53.552;10.092;2023-03-04T11:37:00;101671.75;;;7.38;51.13
72285;BME280;60220;53.552;10.092;2023-03-04T11:39:35;101657.69;;;7.30;51.40
72285;BME280;60220;53.552;10.092;2023-03-04T11:42:06;101653.16;;;7.18;51.11
72285;BME280;60220;53.552;10.092;2023-03-04T11:44:36;101647.56;;;6.94;51.92
72285;BME280;60220;53.552;10.092;2023-03-04T11:47:13;101655.13;;;6.79;51.97
72285;BME280;60220;53.552;10.092;2023-03-04T11:50:01;101665.56;;;7.31;51.69
72285;BME280;60220;53.552;10.092;2023-03-04T11:52:50;101646.50;;;7.39;52.33
72285;BME280;60220;53.552;10.092;2023-03-04T11:55:30;101651.47;;;7.20;52.86
72285;BME280;60220;53.552;10.092;2023-03-04T11:58:13;101651.41;;;7.17;52.63
72285;BME280;60220;53.552;10.092;2023-03-04T12:00:45;101645.31;;;7.77;52.84
72285;BME280;60220;53.552;10.092;2023-03-04T12:03:26;101634.50;;;7.53;52.71
72285;BME280;60220;53.552;10.092;2023-03-04T12:06:05;101638.69;;;7.40;52.98
72285;BME280;60220;53.552;10.092;2023-03-04T12:09:01;101637.59;;;7.24;52.95
72285;BME280;60220;53.552;10.092;2023-03-04T12:11:43;101636.31;;;7.55;53.11
72285;BME280;60220;53.552;10.092;2023-03-04T12:14:25;101631.34;;;7.76;51.70
72285;BME280;60220;53.552;10.092;2023-03-04T12:17:19;101621.31;;;8.11;51.98
72285;BME280;60220;53.552;10.092;2023-03-04T12:19:59;101622.09;;;8.04;51.71
72285;BME280;60220;53.552;10.092;2023-03-04T12:22:40;101622.00;;;7.95;52.39
72285;BME280;60220;53.552;10.092;2023-03-04T12:25:23;101629.25;;;8.22;51.68
72285;BME280;60220;53.552;10.092;2023-03-04T12:28:03;101622.81;;;7.91;51.91
72285;BME280;60220;53.552;10.092;2023-03-04T12:30:53;101618.78;;;7.47;52.94
72285;BME280;60220;53.552;10.092;2023-03-04T12:33:32;101618.25;;;7.75;53.17
72285;BME280;60220;53.552;10.092;2023-03-04T12:36:11;101615.22;;;7.42;53.35
72285;BME280;60220;53.552;10.092;2023-03-04T12:38:56;101610.03;;;7.45;53.05
72285;BME280;60220;53.552;10.092;2023-03-04T12:41:31;101607.16;;;7.94;51.73
72285;BME280;60220;53.552;10.092;2023-03-04T12:44:08;101603.78;;;8.01;52.27
72285;BME280;60220;53.552;10.092;2023-03-04T12:46:43;101596.81;;;8.03;53.38
72285;BME280;60220;53.552;10.092;2023-03-04T12:49:25;101605.00;;;8.34;51.45
72285;BME280;60220;53.552;10.092;2023-03-04T12:52:00;101602.94;;;8.05;52.46
72285;BME280;60220;53.552;10.092;2023-03-04T12:54:31;101604.97;;;7.57;53.66
72285;BME280;60220;53.552;10.092;2023-03-04T12:57:07;101599.88;;;7.69;53.30
72285;BME280;60220;53.552;10.092;2023-03-04T12:59:43;101596.06;;;7.43;54.05
72285;BME280;60220;53.552;10.092;2023-03-04T13:02:31;101594.25;;;7.39;53.49
72285;BME280;60220;53.552;10.092;2023-03-04T13:05:07;101589.53;;;7.78;52.45
72285;BME280;60220;53.552;10.092;2023-03-04T13:07:43;101587.38;;;8.19;51.03